Terminal Aerodrome Forecast
Issued by NWS

Home | Current Version | Previous Version | Text Only | Print | Product List | Glossary On
Versions: 1 2 3 4 5 6 7 8 9 10 11 12 13 14 15
000
FTAK31 PANC 241123
TAFAAQ
TAF
PAAQ 241123Z 2412/2512 14005KT P6SM -SHRA SCT050 OVC060
     FM241700 VRB03KT P6SM -RA SCT022 OVC035
     FM242100 VRB03KT 5SM -RA SCT015 BKN022
     FM250300 15010KT P6SM -SHRA SCT035 OVC050
     FM250900 VRB04KT 5SM -RA OVC050=

USA.gov is the U.S. government's official web portal to all federal, state and local government web resources and services.